createdAt,value
2022-10-06T00:08:49.992Z,13.45
2022-10-06T00:18:53.695Z,13.29
2022-10-06T00:28:58.734Z,13.29
2022-10-06T00:39:02.570Z,13.46
2022-10-06T00:49:16.408Z,13.25
2022-10-06T00:59:20.850Z,13.00
2022-10-06T01:09:26.825Z,13.09
2022-10-06T01:19:47.223Z,13.46
2022-10-06T01:29:55.356Z,14.07
2022-10-06T01:39:59.024Z,14.60
2022-10-06T01:50:05.444Z,15.31
2022-10-06T02:00:12.825Z,15.66
2022-10-06T02:10:18.060Z,15.81
2022-10-06T02:20:22.514Z,15.75
2022-10-06T02:30:27.456Z,15.73
2022-10-06T02:40:31.066Z,15.49
2022-10-06T02:50:37.163Z,15.30
2022-10-06T03:00:40.717Z,15.24
2022-10-06T03:10:46.315Z,15.35
2022-10-06T03:20:50.455Z,15.59
2022-10-06T03:31:03.552Z,15.36
2022-10-06T03:41:10.220Z,15.46
2022-10-06T03:51:18.209Z,15.58
2022-10-06T04:01:26.388Z,15.39
2022-10-06T04:11:34.442Z,15.29
2022-10-06T04:21:39.844Z,15.20
2022-10-06T04:31:45.433Z,15.16
2022-10-06T04:41:49.056Z,15.25
2022-10-06T04:51:54.104Z,15.01
2022-10-06T05:01:58.148Z,15.00
2022-10-06T05:12:03.190Z,14.94
2022-10-06T05:22:06.848Z,14.62
2022-10-06T05:32:11.838Z,14.34
2022-10-06T05:42:15.510Z,14.23
2022-10-06T05:52:20.646Z,14.23
2022-10-06T06:02:24.508Z,14.37
2022-10-06T06:12:29.554Z,14.66
2022-10-06T06:22:34.143Z,14.66
2022-10-06T06:32:39.611Z,14.27
2022-10-06T06:42:43.343Z,14.27
2022-10-06T06:52:48.317Z,14.38
2022-10-06T07:02:56.059Z,14.73
2022-10-06T07:13:01.220Z,14.91
2022-10-06T07:23:23.242Z,15.20
2022-10-06T07:33:29.327Z,15.48
2022-10-06T07:43:33.082Z,15.55
2022-10-06T07:53:39.151Z,15.76
2022-10-06T08:03:45.563Z,15.88
2022-10-06T08:14:01.480Z,15.81
2022-10-06T08:24:07.658Z,15.89
2022-10-06T08:34:12.791Z,16.17
2022-10-06T08:44:26.613Z,16.14
2022-10-06T08:54:39.859Z,16.60
2022-10-06T09:04:43.764Z,16.91
2022-10-06T09:14:54.667Z,17.21
2022-10-06T09:25:03.068Z,17.38
2022-10-06T09:35:19.847Z,17.36
2022-10-06T09:45:28.993Z,17.37
2022-10-06T09:55:52.056Z,17.21
2022-10-06T10:05:56.776Z,16.96
2022-10-06T10:16:04.028Z,17.69
2022-10-06T10:26:25.790Z,17.38
2022-10-06T10:36:37.917Z,17.21
2022-10-06T10:46:53.027Z,17.47
2022-10-06T10:57:03.505Z,17.61
2022-10-06T11:07:23.361Z,17.67
2022-10-06T11:17:44.276Z,17.78
2022-10-06T11:28:02.927Z,17.58
2022-10-06T11:38:19.950Z,17.77
2022-10-06T11:48:27.530Z,17.71
2022-10-06T11:59:13.471Z,17.84
2022-10-06T12:09:53.151Z,18.20
2022-10-06T12:20:11.955Z,17.89
2022-10-06T12:30:23.111Z,18.00
2022-10-06T12:41:04.393Z,18.12
2022-10-06T12:51:25.472Z,18.54
2022-10-06T13:01:31.420Z,18.14
2022-10-06T13:11:35.368Z,18.50
2022-10-06T13:21:40.823Z,18.43
2022-10-06T13:31:52.666Z,18.42
2022-10-06T13:42:03.372Z,18.74
2022-10-06T13:52:18.445Z,18.74
2022-10-06T14:02:33.461Z,18.69
2022-10-06T14:12:43.729Z,18.63
2022-10-06T14:22:48.684Z,18.63
2022-10-06T14:32:52.259Z,18.57
2022-10-06T14:42:57.189Z,18.86
2022-10-06T14:53:01.202Z,18.68
2022-10-06T15:03:07.029Z,18.53
2022-10-06T15:13:12.430Z,18.28
2022-10-06T15:23:17.468Z,18.14
2022-10-06T15:33:21.146Z,18.04
2022-10-06T15:43:46.057Z,17.95
2022-10-06T15:53:52.673Z,17.87
2022-10-06T16:03:59.108Z,17.81
2022-10-06T16:14:02.850Z,17.80
2022-10-06T16:24:08.099Z,17.17
2022-10-06T16:34:12.339Z,16.45
2022-10-06T16:44:18.143Z,15.84
2022-10-06T16:54:21.741Z,15.32
2022-10-06T17:04:27.200Z,14.84
2022-10-06T17:14:34.499Z,14.23
2022-10-06T17:24:39.649Z,13.96
2022-10-06T17:34:43.366Z,13.58
2022-10-06T17:44:48.363Z,13.27
2022-10-06T17:54:52.344Z,13.01
2022-10-06T18:04:57.574Z,12.66
2022-10-06T18:15:04.376Z,12.66
2022-10-06T18:25:16.576Z,12.12
2022-10-06T18:46:03.418Z,11.65
2022-10-06T18:56:10.871Z,11.54
2022-10-06T19:06:16.592Z,11.77
2022-10-06T19:16:28.429Z,11.77
2022-10-06T19:26:34.045Z,11.71
2022-10-06T19:36:39.596Z,11.33
2022-10-06T19:46:44.618Z,11.13
2022-10-06T19:56:49.141Z,10.96
2022-10-06T20:06:54.412Z,10.73
2022-10-06T20:16:58.431Z,10.59
2022-10-06T20:27:03.488Z,10.33
2022-10-06T20:37:07.380Z,10.23
2022-10-06T20:47:13.519Z,9.98
2022-10-06T20:57:17.210Z,9.99
2022-10-06T21:07:22.197Z,10.06
2022-10-06T21:17:25.916Z,9.87
2022-10-06T21:27:30.942Z,9.51
2022-10-06T21:37:35.517Z,9.32
2022-10-06T21:47:40.748Z,9.22
2022-10-06T21:57:44.711Z,9.07
2022-10-06T22:07:49.961Z,9.03
2022-10-06T22:17:53.559Z,8.81
2022-10-06T22:27:58.569Z,8.75
2022-10-06T22:38:08.357Z,8.64
2022-10-06T22:48:22.841Z,8.51
2022-10-06T22:58:27.147Z,8.36
2022-10-06T23:08:35.275Z,8.67
2022-10-06T23:18:41.157Z,8.26
2022-10-06T23:28:47.170Z,8.27
2022-10-06T23:38:51.045Z,8.13
2022-10-06T23:48:55.975Z,8.31
2022-10-06T23:58:59.784Z,7.97
